Terminal Aerodrome Forecast
Issued by NWS

Home | Current Version | Previous Version | Text Only | Print | Product List | Glossary On
Versions: 1 2 3 4 5 6 7 8 9 10 11 12 13 14
000
FTUS46 KSEW 281807 RRA
TAFBFI
TAF
KBFI 281807Z 2818/2918 13006KT P6SM BKN045 BKN100
     FM282200 23008KT P6SM SCT035 BKN080
     FM290400 03004KT P6SM SCT060 BKN100
     FM291400 15008KT P6SM -RA BKN035 OVC060=

USA.gov is the U.S. government's official web portal to all federal, state and local government web resources and services.